Nome Airport
PAOM : rendu visible

Aérodrome :











RETROUVEZ-NOUS SUR...

 
LOGIN :

S'inscrire | Disclaimer

   EN    FR    IT 

 









Légende :    VFR   VFR Marginal   IFR   IFR Intensif   IFR Très Intensif
Visi : 
Plafond : 
>= 8 km
>= 3000ft
5 à 8 km
1000 à 3000 ft
1500m à 5 km
500 à 1000 ft
800 à 1500m
200 à 500 ft
< 800m
< 200 ft
Symboles :   Orages  Brouillard  Fortes neiges  Fortes précipitations  Vent > 20 kt






- Altitude de l'aérodrome : 37 ft
- Code IATA : OME


PAOM - Nome

DERNIER METAR :
  • 271153Z AUTO 01003KT 10SM CLR M26/M28 A2992 RMK AO2 SLP133 I6000 T12561283 11217 21261 58001 TSNO

METARs EXPIRÉS :
  • 271053Z AUTO 00000KT 10SM CLR M24/M27 A2992 RMK AO2 SLP134 I1000 T12391272 TSNO
  • 270953Z AUTO 00000KT 10SM CLR M24/M27 A2993 RMK AO2 SLP135 T12441272 TSNO

TAF PAOM
Valide du 27 à 12h jusqu'au 28 à 12h UTC


271120Z 2712/2812 VRB04KT P6SM SKC



MET'MAP, la Météo Aéronautique d'un coup d'oeil ! - Copyright ORBIFLY Décembre 2007 - Disclaimer

ORBIFLY MET'MAP TEAM :

Programmation & Développement : Alexandra Zaïnal
Sur une idée originale de : Baudouin d'Aumeries
Assistance à la programmation : Marc-Olivier Méhu
Soutien technique & logistique : Manuel Goepfert

Contact : metmap@orbifly.com




SOURCES & CREDITS :

   NOAA       Earth
Advisory